createdAt,value
2023-03-30T00:02:34.795Z,15.39
2023-03-30T00:05:42.986Z,15.44
2023-03-30T00:08:44.716Z,15.29
2023-03-30T00:11:47.894Z,15.30
2023-03-30T00:14:51.988Z,15.26
2023-03-30T00:17:58.642Z,15.10
2023-03-30T00:21:05.239Z,15.22
2023-03-30T00:24:07.544Z,15.24
2023-03-30T00:27:09.295Z,15.31
2023-03-30T00:30:13.462Z,15.19
2023-03-30T00:33:15.766Z,15.12
2023-03-30T00:36:21.112Z,15.23
2023-03-30T00:39:23.243Z,14.98
2023-03-30T00:42:25.645Z,15.02
2023-03-30T00:45:28.834Z,14.94
2023-03-30T00:48:37.320Z,14.98
2023-03-30T00:51:43.126Z,14.94
2023-03-30T00:54:46.954Z,14.99
2023-03-30T00:57:51.290Z,14.99
2023-03-30T01:00:56.735Z,14.94
2023-03-30T01:04:02.480Z,15.06
2023-03-30T01:07:13.998Z,14.99
2023-03-30T01:10:16.342Z,14.76
2023-03-30T01:13:19.860Z,14.86
2023-03-30T01:16:30.348Z,15.09
2023-03-30T01:19:58.701Z,14.98
2023-03-30T01:23:20.054Z,14.91
2023-03-30T01:26:39.826Z,15.16
2023-03-30T01:29:57.798Z,15.26
2023-03-30T01:33:37.256Z,15.26
2023-03-30T01:36:55.242Z,15.21
2023-03-30T01:40:06.084Z,15.24
2023-03-30T01:43:18.821Z,15.11
2023-03-30T01:46:30.872Z,15.05
2023-03-30T01:49:44.816Z,14.96
2023-03-30T01:52:53.905Z,15.07
2023-03-30T01:56:02.880Z,15.12
2023-03-30T01:59:09.942Z,15.13
2023-03-30T02:02:16.928Z,15.20
2023-03-30T02:05:19.752Z,15.18
2023-03-30T02:08:27.201Z,15.19
2023-03-30T02:11:31.877Z,15.22
2023-03-30T02:14:36.448Z,15.34
2023-03-30T02:17:38.552Z,15.38
2023-03-30T02:20:40.565Z,15.26
2023-03-30T02:23:47.878Z,15.15
2023-03-30T02:26:53.101Z,15.14
2023-03-30T02:29:56.340Z,15.15
2023-03-30T02:32:58.296Z,15.02
2023-03-30T02:36:13.572Z,15.03
2023-03-30T02:39:29.669Z,14.74
2023-03-30T02:42:48.891Z,14.72
2023-03-30T02:45:58.041Z,14.80
2023-03-30T02:49:13.098Z,14.69
2023-03-30T02:52:40.797Z,14.77
2023-03-30T02:55:56.038Z,14.75
2023-03-30T02:59:19.382Z,14.71
2023-03-30T03:02:26.675Z,14.69
2023-03-30T03:05:43.391Z,14.63
2023-03-30T03:08:48.092Z,14.64
2023-03-30T03:11:56.268Z,14.29
2023-03-30T03:15:02.488Z,13.96
2023-03-30T03:18:06.255Z,13.79
2023-03-30T03:21:14.532Z,13.84
2023-03-30T03:24:17.652Z,13.45
2023-03-30T03:27:57.891Z,13.55
2023-03-30T03:31:09.023Z,13.55
2023-03-30T03:34:11.640Z,13.67
2023-03-30T03:37:29.306Z,13.58
2023-03-30T03:40:35.780Z,13.62
2023-03-30T03:43:37.782Z,13.72
2023-03-30T03:46:43.121Z,13.59
2023-03-30T03:49:45.006Z,13.58
2023-03-30T03:52:47.179Z,13.61
2023-03-30T03:55:49.184Z,13.54
2023-03-30T03:58:55.924Z,13.40
2023-03-30T04:01:59.560Z,13.17
2023-03-30T04:05:01.687Z,13.20
2023-03-30T04:08:03.493Z,13.31
2023-03-30T04:11:08.092Z,13.38
2023-03-30T04:14:45.472Z,13.39
2023-03-30T04:18:31.496Z,13.59
2023-03-30T04:21:53.301Z,13.62
2023-03-30T04:25:25.809Z,13.50
2023-03-30T04:28:47.142Z,13.87
2023-03-30T04:32:20.614Z,13.74
2023-03-30T04:35:50.917Z,13.98
2023-03-30T04:39:23.982Z,14.08
2023-03-30T04:43:02.369Z,13.79
2023-03-30T04:46:13.963Z,13.65
2023-03-30T04:49:42.266Z,13.56
2023-03-30T04:53:16.311Z,13.46
2023-03-30T04:56:41.605Z,13.56
2023-03-30T04:59:52.939Z,13.58
2023-03-30T05:03:28.218Z,13.53
2023-03-30T05:06:30.272Z,13.47
2023-03-30T05:09:55.237Z,13.46
2023-03-30T05:13:15.875Z,13.30
2023-03-30T05:16:27.820Z,13.36
2023-03-30T05:19:58.724Z,13.31
2023-03-30T05:23:09.845Z,13.42
2023-03-30T05:26:39.406Z,13.30
2023-03-30T05:30:08.608Z,13.31
2023-03-30T05:33:34.062Z,13.32
2023-03-30T05:36:57.193Z,13.28
2023-03-30T05:40:11.832Z,13.17
2023-03-30T05:43:21.872Z,12.90
2023-03-30T05:46:29.951Z,12.19
2023-03-30T05:49:59.130Z,11.96
2023-03-30T05:53:21.537Z,11.88
2023-03-30T05:56:42.630Z,11.90
2023-03-30T06:03:42.725Z,11.81
2023-03-30T06:06:45.905Z,11.80
2023-03-30T06:09:48.182Z,11.81
2023-03-30T06:12:57.917Z,11.87
2023-03-30T06:16:12.251Z,11.85
2023-03-30T06:19:18.253Z,11.80
2023-03-30T06:22:21.581Z,11.85
2023-03-30T06:25:35.928Z,11.90
2023-03-30T06:28:38.267Z,12.00
2023-03-30T06:31:42.376Z,12.10
2023-03-30T06:35:17.021Z,12.12
2023-03-30T06:38:20.482Z,12.11
2023-03-30T06:41:22.495Z,12.15
2023-03-30T06:44:25.121Z,12.23
2023-03-30T06:47:28.350Z,12.21
2023-03-30T06:50:34.843Z,12.26
2023-03-30T06:53:41.604Z,12.42
2023-03-30T06:56:43.786Z,12.48
2023-03-30T06:59:49.374Z,12.45
2023-03-30T07:03:25.397Z,12.44
2023-03-30T07:06:52.415Z,12.44
2023-03-30T07:09:54.207Z,12.32
2023-03-30T07:12:57.822Z,12.35
2023-03-30T07:16:00.095Z,12.43
2023-03-30T07:19:03.378Z,12.38
2023-03-30T07:22:05.164Z,12.38
2023-03-30T07:25:09.081Z,12.38
2023-03-30T07:28:11.008Z,12.24
2023-03-30T07:31:14.316Z,12.28
2023-03-30T07:34:19.227Z,12.36
2023-03-30T07:37:28.914Z,12.35
2023-03-30T07:40:31.264Z,12.26
2023-03-30T07:43:33.513Z,12.29
2023-03-30T07:46:36.477Z,12.39
2023-03-30T07:49:39.740Z,12.35
2023-03-30T07:52:41.792Z,12.36
2023-03-30T07:55:45.900Z,12.39
2023-03-30T07:58:57.152Z,12.32
2023-03-30T08:02:05.613Z,12.32
2023-03-30T08:05:29.555Z,12.33
2023-03-30T08:08:49.846Z,12.35
2023-03-30T08:11:51.922Z,12.29
2023-03-30T08:14:55.640Z,12.27
2023-03-30T08:17:58.107Z,12.29
2023-03-30T08:21:02.159Z,12.40
2023-03-30T08:24:04.791Z,12.42
2023-03-30T08:27:08.056Z,12.47
2023-03-30T08:30:13.134Z,12.57
2023-03-30T08:33:15.890Z,12.64
2023-03-30T08:36:21.444Z,12.63
2023-03-30T08:39:24.349Z,12.61
2023-03-30T08:43:07.868Z,12.60
2023-03-30T08:46:14.474Z,12.70
2023-03-30T08:49:19.487Z,12.63
2023-03-30T08:52:25.388Z,12.71
2023-03-30T08:55:34.950Z,12.77
2023-03-30T08:58:45.508Z,12.77
2023-03-30T09:01:53.522Z,12.75
2023-03-30T09:05:01.937Z,12.79
2023-03-30T09:08:16.918Z,12.82
2023-03-30T09:11:33.325Z,12.87
2023-03-30T09:14:43.725Z,12.91
2023-03-30T09:17:48.933Z,12.89
2023-03-30T09:20:52.869Z,12.96
2023-03-30T09:23:59.041Z,13.08
2023-03-30T09:27:05.731Z,13.16
2023-03-30T09:30:18.284Z,13.35
2023-03-30T09:33:32.166Z,13.29
2023-03-30T09:36:39.546Z,13.41
2023-03-30T09:39:43.292Z,13.47
2023-03-30T09:42:51.437Z,13.56
2023-03-30T09:45:53.515Z,13.47
2023-03-30T09:49:12.603Z,13.49
2023-03-30T09:52:21.862Z,13.72
2023-03-30T09:55:30.397Z,13.72
2023-03-30T09:58:34.298Z,13.76
2023-03-30T10:01:40.905Z,13.78
2023-03-30T10:05:06.221Z,13.84
2023-03-30T10:08:22.928Z,13.87
2023-03-30T10:11:36.530Z,13.87
2023-03-30T10:14:38.504Z,13.97
2023-03-30T10:17:46.987Z,14.08
2023-03-30T10:20:51.953Z,14.26
2023-03-30T10:24:01.438Z,14.52
2023-03-30T10:27:12.216Z,14.53
2023-03-30T10:30:23.378Z,14.51
2023-03-30T10:33:27.412Z,14.62
2023-03-30T10:36:37.253Z,14.71
2023-03-30T10:39:41.863Z,14.70
2023-03-30T10:42:46.720Z,14.75
2023-03-30T10:45:50.816Z,14.81
2023-03-30T10:49:06.582Z,14.94
2023-03-30T10:52:18.277Z,15.03
2023-03-30T10:55:25.460Z,15.06
2023-03-30T10:58:44.083Z,15.18
2023-03-30T11:02:00.452Z,15.26
2023-03-30T11:05:07.510Z,15.44
2023-03-30T11:08:15.228Z,16.34
2023-03-30T11:11:21.176Z,16.19
2023-03-30T11:14:40.250Z,16.48
2023-03-30T11:17:51.074Z,16.71
2023-03-30T11:20:59.133Z,16.87
2023-03-30T11:24:06.992Z,16.44
2023-03-30T11:27:22.561Z,16.17
2023-03-30T11:30:29.534Z,16.24
2023-03-30T11:33:38.905Z,16.24
2023-03-30T11:36:48.648Z,16.65
2023-03-30T11:39:56.837Z,16.51
2023-03-30T11:43:01.620Z,16.68
2023-03-30T11:46:10.108Z,16.56
2023-03-30T11:49:31.357Z,16.52
2023-03-30T11:52:41.389Z,16.30
2023-03-30T11:55:54.932Z,16.06
2023-03-30T11:59:05.216Z,16.19
2023-03-30T12:02:18.014Z,16.22
2023-03-30T12:05:28.508Z,16.38
2023-03-30T12:08:51.790Z,16.91
2023-03-30T12:12:03.939Z,16.39
2023-03-30T12:15:34.744Z,16.14
2023-03-30T12:18:43.339Z,15.96
2023-03-30T12:21:55.013Z,15.83
2023-03-30T12:25:05.452Z,15.79
2023-03-30T12:28:17.815Z,15.22
2023-03-30T12:31:21.249Z,15.14
2023-03-30T12:34:29.782Z,15.66
2023-03-30T12:37:34.961Z,15.99
2023-03-30T12:40:38.096Z,15.69
2023-03-30T12:43:57.873Z,15.84
2023-03-30T12:47:14.014Z,16.17
2023-03-30T12:50:31.976Z,16.76
2023-03-30T12:57:37.541Z,17.67
2023-03-30T13:01:04.486Z,17.96
2023-03-30T13:04:09.029Z,18.16
2023-03-30T13:07:15.905Z,17.79
2023-03-30T13:10:39.375Z,17.97
2023-03-30T13:13:50.559Z,18.51
2023-03-30T13:17:14.712Z,18.32
2023-03-30T13:20:30.001Z,18.88
2023-03-30T13:23:39.924Z,18.94
2023-03-30T13:26:44.574Z,19.16
2023-03-30T13:29:49.218Z,19.31
2023-03-30T13:33:01.001Z,19.11
2023-03-30T13:36:09.674Z,19.12
2023-03-30T13:39:23.466Z,19.80
2023-03-30T13:42:46.082Z,19.25
2023-03-30T13:46:00.320Z,19.21
2023-03-30T13:49:40.013Z,19.06
2023-03-30T13:52:46.606Z,19.30
2023-03-30T13:55:51.060Z,20.14
2023-03-30T13:59:03.421Z,20.19
2023-03-30T14:02:13.677Z,19.03
2023-03-30T14:05:20.645Z,20.12
2023-03-30T14:08:23.537Z,19.38
2023-03-30T14:11:33.615Z,19.81
2023-03-30T14:14:39.043Z,19.81
2023-03-30T14:17:44.455Z,20.42
2023-03-30T14:20:49.396Z,19.16
2023-03-30T14:23:54.311Z,18.27
2023-03-30T14:27:03.917Z,18.03
2023-03-30T14:30:19.008Z,17.84
2023-03-30T14:33:21.905Z,17.65
2023-03-30T14:36:23.802Z,17.49
2023-03-30T14:39:26.576Z,16.91
2023-03-30T14:42:34.008Z,15.41
2023-03-30T14:45:37.825Z,15.52
2023-03-30T14:48:42.630Z,16.01
2023-03-30T14:51:47.798Z,16.77
2023-03-30T14:55:05.183Z,17.62
2023-03-30T14:58:14.860Z,18.16
2023-03-30T15:01:25.786Z,18.60
2023-03-30T15:04:34.252Z,19.25
2023-03-30T15:07:37.048Z,19.63
2023-03-30T15:10:45.306Z,19.18
2023-03-30T15:13:51.876Z,18.73
2023-03-30T15:16:57.179Z,19.79
2023-03-30T15:20:02.641Z,19.90
2023-03-30T15:23:04.784Z,18.52
2023-03-30T15:26:07.754Z,17.83
2023-03-30T15:29:12.289Z,17.54
2023-03-30T15:32:18.490Z,17.28
2023-03-30T15:35:23.690Z,18.09
2023-03-30T15:38:43.839Z,18.07
2023-03-30T15:42:01.693Z,18.27
2023-03-30T15:45:10.949Z,18.38
2023-03-30T15:48:13.190Z,17.71
2023-03-30T15:51:28.292Z,17.53
2023-03-30T15:54:38.408Z,17.28
2023-03-30T15:57:44.286Z,17.40
2023-03-30T16:00:48.311Z,17.04
2023-03-30T16:03:55.298Z,17.16
2023-03-30T16:06:57.482Z,17.29
2023-03-30T16:09:59.558Z,17.20
2023-03-30T16:13:02.060Z,17.24
2023-03-30T16:16:07.189Z,17.26
2023-03-30T16:19:10.895Z,17.29
2023-03-30T16:22:14.568Z,17.32
2023-03-30T16:25:23.254Z,17.39
2023-03-30T16:28:31.948Z,17.22
2023-03-30T16:31:35.433Z,17.50
2023-03-30T16:34:37.100Z,17.36
2023-03-30T16:37:39.197Z,16.81
2023-03-30T16:40:46.550Z,16.86
2023-03-30T16:43:56.880Z,16.60
2023-03-30T16:47:01.020Z,16.35
2023-03-30T16:50:19.074Z,15.89
2023-03-30T16:53:20.760Z,15.19
2023-03-30T16:56:23.426Z,14.82
2023-03-30T16:59:33.555Z,14.42
2023-03-30T17:02:36.928Z,14.32
2023-03-30T17:05:39.330Z,14.18
2023-03-30T17:08:43.057Z,14.23
2023-03-30T17:11:46.248Z,14.39
2023-03-30T17:14:47.973Z,14.61
2023-03-30T17:17:52.229Z,14.74
2023-03-30T17:20:55.331Z,14.74
2023-03-30T17:23:57.886Z,14.68
2023-03-30T17:27:00.160Z,14.67
2023-03-30T17:30:02.000Z,14.58
2023-03-30T17:33:12.809Z,14.49
2023-03-30T17:36:22.986Z,14.44
2023-03-30T17:39:24.980Z,14.25
2023-03-30T17:42:26.745Z,14.17
2023-03-30T17:45:29.266Z,14.00
2023-03-30T17:48:32.455Z,14.01
2023-03-30T17:51:34.307Z,13.82
2023-03-30T17:54:36.752Z,13.75
2023-03-30T17:57:39.898Z,13.44
2023-03-30T18:00:42.097Z,13.54
2023-03-30T18:03:46.425Z,13.39
2023-03-30T18:06:48.959Z,13.20
2023-03-30T18:09:51.379Z,13.18
2023-03-30T18:12:54.986Z,13.29
2023-03-30T18:15:58.709Z,13.43
2023-03-30T18:19:02.978Z,13.21
2023-03-30T18:22:31.457Z,13.17
2023-03-30T18:25:37.625Z,13.20
2023-03-30T18:28:46.401Z,13.43
2023-03-30T18:31:49.025Z,13.48
2023-03-30T18:34:52.372Z,13.46
2023-03-30T18:37:58.833Z,13.35
2023-03-30T18:41:01.548Z,13.43
2023-03-30T18:44:03.457Z,13.24
2023-03-30T18:47:11.789Z,13.25
2023-03-30T18:50:19.874Z,13.18
2023-03-30T18:53:23.657Z,13.24
2023-03-30T18:56:27.455Z,13.23
2023-03-30T18:59:29.624Z,13.26
2023-03-30T19:02:31.474Z,13.10
2023-03-30T19:05:40.899Z,13.12
2023-03-30T19:08:43.615Z,13.05
2023-03-30T19:11:46.422Z,13.17
2023-03-30T19:14:54.326Z,13.25
2023-03-30T19:17:56.747Z,12.90
2023-03-30T19:21:02.877Z,12.89
2023-03-30T19:24:09.999Z,12.64
2023-03-30T19:27:12.330Z,12.36
2023-03-30T19:30:17.330Z,12.48
2023-03-30T19:33:23.726Z,12.42
2023-03-30T19:36:27.320Z,12.24
2023-03-30T19:39:29.006Z,12.17
2023-03-30T19:42:35.637Z,12.08
2023-03-30T19:45:38.142Z,12.02
2023-03-30T19:48:40.308Z,11.97
2023-03-30T19:51:43.779Z,11.91
2023-03-30T19:54:45.829Z,11.97
2023-03-30T19:57:47.706Z,12.11
2023-03-30T20:00:50.654Z,12.08
2023-03-30T20:03:53.808Z,12.17
2023-03-30T20:06:59.932Z,12.22
2023-03-30T20:10:02.423Z,12.05
2023-03-30T20:13:06.252Z,12.13
2023-03-30T20:16:09.328Z,12.06
2023-03-30T20:19:28.550Z,12.11
2023-03-30T20:22:32.703Z,12.14
2023-03-30T20:25:34.797Z,12.04
2023-03-30T20:28:37.912Z,12.02
2023-03-30T20:31:41.191Z,12.03
2023-03-30T20:34:45.818Z,12.01
2023-03-30T20:37:49.046Z,12.04
2023-03-30T20:40:56.002Z,11.88
2023-03-30T20:43:58.025Z,11.83
2023-03-30T20:46:59.958Z,11.91
2023-03-30T20:50:01.697Z,12.01
2023-03-30T20:53:26.608Z,12.05
2023-03-30T20:56:29.106Z,11.99
2023-03-30T20:59:31.972Z,12.08
2023-03-30T21:02:34.230Z,12.08
2023-03-30T21:05:36.200Z,12.07
2023-03-30T21:08:40.774Z,12.16
2023-03-30T21:11:42.707Z,12.10
2023-03-30T21:14:45.859Z,12.05
2023-03-30T21:17:49.750Z,11.95
2023-03-30T21:20:53.272Z,11.94
2023-03-30T21:23:57.542Z,11.88
2023-03-30T21:26:59.654Z,11.78
2023-03-30T21:30:01.938Z,11.77
2023-03-30T21:33:03.956Z,11.76
2023-03-30T21:36:07.094Z,11.66
2023-03-30T21:39:10.589Z,11.69
2023-03-30T21:42:12.326Z,11.57
2023-03-30T21:45:15.221Z,11.47
2023-03-30T21:48:17.164Z,11.41
2023-03-30T21:51:20.673Z,11.73
2023-03-30T21:54:27.841Z,11.70
2023-03-30T21:57:30.318Z,11.60
2023-03-30T22:00:32.624Z,11.89
2023-03-30T22:03:35.090Z,12.01
2023-03-30T22:06:37.014Z,12.07
2023-03-30T22:09:40.568Z,12.02
2023-03-30T22:12:42.552Z,12.00
2023-03-30T22:15:55.993Z,11.91
2023-03-30T22:18:58.343Z,11.83
2023-03-30T22:22:00.396Z,11.70
2023-03-30T22:25:04.647Z,11.69
2023-03-30T22:28:08.718Z,11.65
2023-03-30T22:31:12.352Z,11.60
2023-03-30T22:37:34.946Z,11.71
2023-03-30T22:40:41.727Z,11.70
2023-03-30T22:43:43.597Z,11.72
2023-03-30T22:46:45.644Z,11.78
2023-03-30T22:49:47.526Z,11.88
2023-03-30T22:52:49.484Z,11.84
2023-03-30T22:56:01.951Z,11.87
2023-03-30T22:59:04.206Z,12.03
2023-03-30T23:02:06.072Z,11.91
2023-03-30T23:05:08.830Z,11.93
2023-03-30T23:08:12.287Z,11.95
2023-03-30T23:11:17.208Z,11.90
2023-03-30T23:14:26.872Z,11.90
2023-03-30T23:17:30.264Z,11.94
2023-03-30T23:20:32.019Z,11.99
2023-03-30T23:23:34.290Z,11.95
2023-03-30T23:26:37.909Z,11.98
2023-03-30T23:29:45.716Z,11.94
2023-03-30T23:32:49.937Z,11.94
2023-03-30T23:35:53.233Z,11.91
2023-03-30T23:38:56.062Z,11.94
2023-03-30T23:41:59.298Z,11.91
2023-03-30T23:45:03.763Z,11.85
2023-03-30T23:48:06.937Z,11.85
2023-03-30T23:51:09.731Z,11.92
2023-03-30T23:54:11.905Z,11.89
2023-03-30T23:57:15.023Z,11.95
